Johnstown, PA

7:04 AM EDT on August 27, 2014 (GMT -0400)
Brownstown | Change Station
CLOSE
Current Station
Personal Weather Station
Location: Johnstown, PA
Elevation: 1516 ft
Nearby Weather Stations

Elev 1516 ft 40.34 °N, 78.94 °W | Updated 3 seconds ago

Clear
Clear
56.7 °F
Feels Like 56.7 °F
N
0.0
Wind Variable Wind from East
Gusts 0.0 mph

Today
High -- | Low -- °F
--% Chance of Precip.
Yesterday
High -- | Low -- °F
Precip. -- in
6:38 AM 7:55 PM
Waxing Crescent, 3% visible
Pressure 30.11 in
Visibility 10.0 miles
Clouds Clear
Dew Point 56 °F
Humidity 99%
Rainfall 0.00 in
Snow Depth Not available.
UV 0 out of 12
Pollen 9.70 out of 12
Air Quality Not available.
Flu Activity Not available.
METAR KJST 271054Z AUTO 25006KT 10SM CLR 17/13 A3015 RMK AO2 SLP196 T01720133

More Conditions Fewer Conditions

Pressure 30.11 in
Visibility 10.0 miles
Clouds Clear
Dew Point 56 °F
Humidity 99%
Rainfall 0.00 in
Snow Depth Not available.
UV 0 out of 12
Pollen 9.70 out of 12
Air Quality Not available.
Flu Activity Not available.
METAR KJST 271054Z AUTO 25006KT 10SM CLR 17/13 A3015 RMK AO2 SLP196 T01720133

More Conditions Fewer Conditions

10-Day Weather Forecast

Almanac

Astronomy

Aug. 27, 2014 Rise Set
Actual Time 6:38 AM EDT 7:55 PM EDT
Civil Twilight 6:10 AM EDT 8:23 PM EDT
Nautical Twilight 5:36 AM EDT 8:57 PM EDT
Astronomical Twilight 5:00 AM EDT 9:32 PM EDT
Moon 8:33 AM EDT 8:46 PM EDT
Length of Visible Light 14h 13m
Length of Day
13h 17m
Tomorrow will be 2m 31s shorter.
Waxing Crescent, 3% of the Moon is Illuminated
Today
Waxing Crescent
Sep 2
First Quarter
Sep 8
Full
Sep 15
Last Quarter
Sep 24
New

Today's Extremes

State Highs State Lows

Community

WunderPhotos

Upload Photos

1,747,667 photos uploaded!

Nearby

Snow Depth

Station Depth Elevation
No new snow has been reported.

Earthquake Activity

City Distance Mag. Time & Date
No recent earthquake activity has been reported nearby.
Minimum magnitude displayed is 2.5.

Coastal Water Temperatures

Place Temperature
No Stations Reporting

Nearby Weather Stations